Date,TemperatureHighF,TemperatureAvgF,TemperatureLowF,DewpointHighF,DewpointAvgF,DewpointLowF,HumidityHigh,HumidityAvg,HumidityLow,PressureMaxIn,PressureMinIn,WindSpeedMaxMPH,WindSpeedAvgMPH,GustSpeedMaxMPH,PrecipitationSumIn
2013-1-4,66.0,59.9,53.0,33.0,25.5,15.0,39,27,19,30.26,30.16,4,2,0,0.00
2013-1-5,62.0,54.9,49.0,50.0,44.1,29.0,88,68,39,30.31,30.18,5,1,0,0.00
2013-1-6,58.0,51.6,47.0,52.0,48.1,46.0,97,88,73,30.23,30.04,14,2,0,0.20
2013-1-7,65.0,53.5,46.0,49.0,43.6,37.0,95,71,36,30.11,29.98,13,3,0,0.01
2013-1-8,64.0,56.8,50.0,53.0,49.4,43.0,88,76,66,30.13,30.03,4,1,0,0.00
2013-1-9,63.0,56.9,53.0,56.0,52.0,46.0,94,84,70,30.16,30.04,5,1,0,0.00
2013-1-10,55.0,52.2,47.0,51.0,42.5,27.0,95,71,43,30.12,29.94,18,10,0,0.00
2013-1-11,54.0,48.3,44.0,35.0,28.4,23.0,56,46,37,30.22,30.06,17,6,0,0.00
2013-1-12,56.0,47.4,42.0,36.0,30.1,23.0,66,51,40,30.19,30.08,5,2,0,0.00
2013-1-13,56.0,47.0,39.0,39.0,30.1,21.0,75,53,32,30.19,30.06,10,5,0,0.00
2013-1-14,58.0,47.4,42.0,27.0,11.9,-1.0,56,26,10,30.36,30.14,11,3,0,0.00
2013-1-15,57.0,49.6,45.0,35.0,23.9,7.0,62,38,19,30.47,30.32,12,2,0,0.00
2013-1-17,75.0,64.8,54.0,40.0,30.7,24.0,50,28,19,30.17,30.02,4,1,0,0.00
2013-1-18,76.0,65.9,59.0,45.0,32.4,23.0,40,29,21,30.14,30.02,3,1,0,0.00
2013-1-19,74.0,66.2,60.0,45.0,30.2,21.0,47,27,18,30.18,30.05,7,1,0,0.00
2013-1-20,73.0,64.3,58.0,45.0,32.1,18.0,45,31,18,30.14,29.98,2,1,0,0.00
2013-1-21,77.0,65.6,56.0,47.0,29.8,15.0,49,28,13,30.08,29.96,3,1,0,0.00
2013-1-22,75.0,66.7,58.0,39.0,25.9,11.0,34,22,11,30.10,29.99,3,1,0,0.00
2013-1-23,76.0,67.0,60.0,51.0,36.1,14.0,72,35,13,30.15,30.02,9,3,0,0.00
2013-1-24,70.0,60.6,54.0,57.0,54.1,51.0,94,80,57,30.20,30.09,6,2,0,0.56
2013-1-25,65.0,61.0,59.0,61.0,58.9,56.0,100,93,82,30.11,29.96,11,2,0,0.32
2013-1-26,62.0,58.2,55.0,62.0,58.2,54.0,100,100,100,30.03,29.90,4,1,0,0.09
2013-1-27,56.0,55.0,54.0,55.0,51.1,48.0,100,86,74,30.06,29.98,14,9,0,0.00
2013-1-28,56.0,50.5,42.0,49.0,40.7,32.0,91,70,47,30.21,30.03,20,7,0,0.00
2013-1-29,60.0,52.6,46.0,47.0,40.8,32.0,77,64,52,30.27,30.16,6,2,0,0.00
2013-1-30,68.0,57.4,49.0,52.0,45.1,39.0,78,65,46,30.35,30.19,2,1,0,0.00
2013-1-31,66.0,61.4,52.0,55.0,48.3,43.0,78,63,45,30.22,30.08,2,1,0,0.00
2013-2-1,71.0,61.4,55.0,56.0,49.3,43.0,79,65,50,30.18,30.08,3,1,0,0.00
2013-2-2,69.0,62.1,56.0,54.0,50.2,44.0,80,65,49,30.20,30.09,3,0,0,0.00
2013-2-3,67.0,62.1,56.0,59.0,51.6,46.0,90,69,55,30.14,30.00,5,1,0,0.01
2013-2-4,58.0,53.7,51.0,54.0,51.9,50.0,100,94,86,30.11,30.00,4,1,0,0.00
2013-2-5,55.0,52.6,50.0,53.0,50.9,49.0,100,94,86,30.13,30.01,2,0,0,0.00
2013-2-6,62.0,55.5,51.0,53.0,50.2,48.0,94,83,69,30.13,30.02,4,1,0,0.00
2013-2-7,59.0,53.5,50.0,54.0,49.6,46.0,96,87,80,30.16,30.03,3,1,0,0.00
2013-2-8,55.0,49.9,43.0,49.0,43.3,40.0,92,78,67,30.04,29.92,17,7,0,0.12
2013-2-9,58.0,49.2,43.0,46.0,42.2,38.0,91,78,61,30.14,29.96,5,2,0,0.00
2013-2-10,58.0,50.8,45.0,47.0,43.5,39.0,89,76,66,30.14,30.02,6,2,0,0.00
2013-2-11,60.0,51.7,46.0,50.0,45.2,38.0,88,79,65,30.27,30.09,9,2,0,0.00
2013-2-12,59.0,53.6,48.0,51.0,43.6,38.0,84,69,60,30.36,30.23,5,2,0,0.00
2013-2-13,62.0,54.8,49.0,53.0,47.8,41.0,90,77,69,30.29,30.13,6,1,0,0.00
2013-2-14,67.0,55.7,49.0,56.0,50.2,46.0,95,83,60,30.24,30.05,3,1,0,0.00
2013-2-15,76.0,66.8,55.0,49.0,36.2,19.0,81,36,15,30.18,30.09,4,1,0,0.00
2013-2-16,77.0,69.3,60.0,40.0,24.8,13.0,34,19,11,30.15,29.96,8,2,0,0.00
2013-2-17,62.0,56.3,52.0,53.0,48.4,39.0,89,76,50,30.04,29.94,9,4,0,0.00
2013-2-18,61.0,54.8,52.0,51.0,47.8,44.0,86,78,64,30.08,29.96,9,3,0,0.00
2013-2-19,52.0,50.8,48.0,50.0,44.7,41.0,95,80,68,30.01,29.76,19,6,0,0.22
2013-2-20,56.0,50.5,43.0,45.0,39.5,32.0,82,66,47,30.03,29.75,19,8,0,0.00
2013-2-21,61.0,52.1,48.0,49.0,44.7,41.0,85,76,64,30.12,29.98,7,3,0,0.00
2013-2-22,61.0,53.9,47.0,52.0,46.0,39.0,88,75,62,30.22,30.12,4,1,0,0.00
2013-2-23,62.0,54.2,49.0,52.0,48.0,43.0,91,80,67,30.20,29.93,4,2,0,0.00
2013-2-24,71.0,58.7,49.0,51.0,26.6,5.0,89,41,9,30.20,30.01,7,2,0,0.00
2013-2-25,65.0,56.8,51.0,51.0,40.9,26.0,84,58,32,30.23,30.07,4,2,0,0.00
2013-2-26,64.0,55.7,47.0,53.0,47.4,37.0,95,75,47,30.11,29.99,6,1,0,0.00
2013-2-27,69.0,61.9,55.0,44.0,32.9,19.0,60,35,21,30.27,30.13,8,2,0,0.00
2013-2-28,75.0,64.7,56.0,46.0,29.1,19.0,45,28,14,30.31,30.21,6,2,0,0.00
2013-3-1,81.0,72.1,60.0,42.0,27.5,20.0,31,20,12,30.30,30.12,11,2,0,0.00
2013-3-2,77.0,69.5,56.0,48.0,35.4,26.0,75,31,19,30.20,30.06,3,1,0,0.00
2013-3-3,66.0,58.5,54.0,57.0,51.5,44.0,91,78,59,30.12,29.99,3,1,0,0.00
2013-3-4,64.0,57.3,53.0,55.0,52.4,49.0,92,84,71,30.11,30.02,8,2,0,0.00
2013-3-5,60.0,55.1,52.0,54.0,51.7,49.0,93,88,80,30.15,30.05,5,2,0,0.00
2013-3-6,62.0,55.3,50.0,51.0,47.6,45.0,91,76,60,30.16,30.03,5,2,0,0.00
2013-3-7,59.0,54.5,51.0,53.0,50.9,46.0,97,88,74,30.04,29.88,7,3,0,0.08
2013-3-8,56.0,51.0,46.0,49.0,46.7,45.0,96,86,72,30.06,29.82,20,5,0,0.61
2013-3-9,57.0,53.5,51.0,50.0,46.2,41.0,85,76,62,30.24,30.06,16,5,0,0.00
2013-3-10,69.0,58.4,50.0,55.0,46.1,36.0,83,66,35,30.28,30.14,9,2,0,0.00
2013-3-11,67.0,59.0,50.0,57.0,50.6,43.0,95,75,57,30.20,30.04,3,1,0,0.00
2013-3-12,65.0,53.9,45.0,57.0,51.5,45.0,100,92,74,30.12,30.00,2,1,0,0.01
2013-3-13,62.0,54.0,47.0,57.0,52.3,47.0,100,94,82,30.14,30.03,3,0,0,0.01
2013-3-14,66.0,55.3,48.0,58.0,53.2,48.0,100,93,74,30.11,30.00,3,1,0,0.01
2013-3-15,63.0,54.2,51.0,57.0,53.1,51.0,100,96,80,30.07,29.96,2,1,0,0.00
2013-3-16,62.0,54.4,50.0,54.0,52.1,50.0,100,92,75,30.00,29.91,4,2,0,0.00
2013-3-17,64.0,57.2,53.0,56.0,53.1,51.0,96,86,74,30.01,29.94,7,2,0,0.00
2013-3-18,65.0,57.2,54.0,54.0,52.2,50.0,91,84,68,30.10,30.00,5,2,0,0.00
2013-3-19,58.0,55.1,50.0,54.0,52.0,48.0,95,89,84,30.13,30.05,8,4,0,0.00
2013-3-20,64.0,57.5,52.0,58.0,54.4,51.0,98,90,77,30.11,29.99,4,1,0,0.00
2013-3-21,66.0,59.0,54.0,59.0,54.4,51.0,95,85,71,30.00,29.81,4,1,0,0.00
2013-3-22,65.0,58.5,54.0,56.0,53.9,52.0,94,86,71,29.93,29.84,7,2,0,0.00
2013-3-23,65.0,58.7,55.0,56.0,53.6,52.0,94,84,69,30.03,29.93,7,2,0,0.00
2013-3-24,67.0,59.0,54.0,58.0,55.2,53.0,97,88,71,30.03,29.88,5,1,0,0.00
2013-3-25,65.0,58.2,53.0,57.0,55.3,53.0,100,91,75,29.99,29.88,4,1,0,0.00
2013-3-26,65.0,57.8,54.0,57.0,54.1,51.0,97,88,71,29.99,29.90,5,1,0,0.00
2013-3-27,65.0,58.5,55.0,56.0,53.6,52.0,93,84,72,30.06,29.94,5,2,0,0.00
2013-3-28,64.0,58.3,54.0,56.0,54.1,52.0,93,86,72,30.09,30.01,6,2,0,0.00
2013-3-29,62.0,56.9,54.0,57.0,55.0,52.0,99,94,82,30.12,30.05,5,1,0,0.00
2013-3-30,64.0,58.0,55.0,58.0,55.4,53.0,99,91,78,30.15,30.07,7,2,0,0.00
2013-3-31,66.0,59.1,54.0,60.0,55.9,53.0,97,89,78,30.15,30.07,5,2,0,0.00
2013-4-1,62.0,57.7,55.0,57.0,53.9,52.0,95,87,75,30.19,30.09,13,5,0,0.00
2013-4-2,65.0,59.0,55.0,56.0,54.6,53.0,96,86,69,30.12,29.99,9,1,0,0.00
2013-4-3,66.0,58.9,55.0,58.0,55.6,53.0,96,89,75,30.10,29.99,5,1,0,0.00
2013-4-4,67.0,59.1,55.0,59.0,55.8,54.0,98,90,76,30.12,30.01,8,2,0,0.00
2013-4-5,67.0,59.5,56.0,59.0,56.6,54.0,100,91,72,30.11,30.00,8,2,0,0.00
2013-4-6,67.0,60.7,57.0,59.0,56.1,54.0,94,86,70,30.10,29.95,6,2,0,0.00
2013-4-7,61.0,58.6,55.0,58.0,55.0,53.0,94,88,82,29.98,29.82,9,4,0,0.00
2013-4-8,60.0,57.5,55.0,56.0,51.3,46.0,90,80,67,29.83,29.69,30,14,0,0.00
2013-4-9,64.0,56.6,51.0,53.0,47.9,40.0,86,73,42,30.02,29.83,16,4,0,0.00
2013-4-10,63.0,55.9,48.0,55.0,48.0,42.0,85,75,64,30.09,29.98,9,5,0,0.00
2013-4-11,65.0,59.8,57.0,57.0,51.7,43.0,89,76,57,30.02,29.81,10,5,0,0.00
2013-4-12,66.0,59.2,56.0,56.0,53.9,51.0,94,83,69,29.91,29.78,8,4,0,0.00
2013-4-13,58.0,56.2,55.0,57.0,54.5,51.0,99,94,86,29.93,29.86,9,3,0,0.00
2013-4-14,62.0,56.0,53.0,55.0,52.5,50.0,95,88,77,29.91,29.83,12,4,0,0.01
2013-4-15,65.0,57.4,54.0,57.0,53.0,49.0,94,85,72,29.93,29.86,11,4,0,0.00
2013-4-16,62.0,56.2,51.0,51.0,48.1,41.0,86,75,59,30.01,29.90,17,4,0,0.00
2013-4-17,67.0,60.3,52.0,49.0,34.8,24.0,83,40,23,30.12,30.00,16,6,0,0.00
2013-4-18,73.0,65.0,56.0,39.0,26.5,15.0,43,25,12,30.19,30.10,13,4,0,0.00
2013-4-19,77.0,66.3,58.0,49.0,34.7,24.0,50,32,19,30.17,29.96,18,2,0,0.00
2013-4-20,74.0,62.6,55.0,59.0,54.4,50.0,92,76,54,30.01,29.87,4,1,0,0.00
2013-4-21,68.0,59.9,54.0,59.0,56.4,53.0,98,89,72,30.02,29.96,8,2,0,0.00
2013-4-22,66.0,59.1,56.0,56.0,54.1,53.0,92,84,70,30.02,29.91,6,2,0,0.00
2013-4-23,66.0,60.1,56.0,55.0,53.7,52.0,88,80,66,30.00,29.87,5,2,0,0.00
2013-4-24,64.0,58.3,56.0,56.0,54.8,53.0,97,88,74,29.99,29.92,3,1,0,0.01
2013-4-25,69.0,61.8,57.0,58.0,54.8,53.0,87,78,65,30.13,29.98,14,2,0,0.00
2013-4-26,70.0,61.8,56.0,59.0,55.7,52.0,95,81,68,30.17,30.10,8,2,0,0.00
2013-4-27,69.0,60.3,55.0,60.0,56.9,54.0,97,89,73,30.17,30.00,7,1,0,0.01
2013-4-28,65.0,59.6,57.0,59.0,56.8,56.0,96,91,77,30.04,29.88,5,1,0,0.00
2013-4-29,60.0,57.8,56.0,57.0,55.8,55.0,98,94,88,29.93,29.80,12,4,0,0.00
2013-4-30,60.0,59.3,58.0,56.0,55.2,54.0,89,87,83,29.91,29.84,14,9,0,0.00
2013-5-1,63.0,60.5,59.0,58.0,57.0,54.0,94,89,83,30.10,29.91,14,4,0,0.00
2013-5-2,66.0,59.9,53.0,62.0,56.5,51.0,93,88,80,30.12,29.95,11,4,0,0.00
2013-5-3,86.0,67.2,53.0,62.0,48.4,29.0,81,54,13,30.02,29.76,10,2,0,0.00
2013-5-4,66.0,61.3,58.0,58.0,56.1,54.0,94,84,74,29.87,29.76,14,7,0,0.00
2013-5-5,63.0,59.6,58.0,56.0,55.0,54.0,90,85,76,29.96,29.85,9,5,0,0.00
2013-5-6,65.0,60.6,57.0,60.0,57.7,55.0,99,91,76,30.03,29.93,12,6,0,0.29
2013-5-7,70.0,62.9,58.0,59.0,56.5,53.0,94,81,57,30.09,30.00,5,2,0,0.00
2013-5-8,68.0,61.6,58.0,60.0,56.5,55.0,93,84,70,30.11,30.06,10,3,0,0.00
2013-5-9,70.0,62.5,57.0,61.0,57.4,55.0,94,84,70,30.11,30.03,4,2,0,0.00
2013-5-10,64.0,61.2,57.0,61.0,57.5,54.0,91,88,84,30.09,30.00,11,4,0,0.00
2013-5-11,63.0,61.3,59.0,62.0,59.3,56.0,97,93,90,30.08,29.97,13,4,0,0.00
2013-5-12,67.0,61.9,59.0,65.0,60.9,58.0,99,97,92,30.06,29.89,12,3,0,0.00
2013-5-13,71.0,65.8,61.0,65.0,60.4,56.0,91,83,68,29.96,29.85,14,5,0,0.00
2013-5-14,71.0,64.4,59.0,63.0,59.0,56.0,94,83,71,30.01,29.91,11,2,0,0.00
2013-5-15,69.0,62.4,59.0,60.0,56.9,54.0,92,83,70,30.04,29.95,10,4,0,0.00
2013-5-16,71.0,58.4,60.0,61.0,35.9,-99.9,89,81,71,29.99,29.89,7,3,0,0.00
2013-5-17,71.0,63.1,60.0,61.0,52.0,-99.9,92,84,70,30.01,29.92,9,3,0,0.00
2013-5-18,64.0,61.8,58.0,60.0,57.5,54.0,89,86,82,30.05,29.96,10,5,0,0.00
2013-5-19,63.0,62.0,59.0,59.0,57.7,55.0,89,86,83,29.99,29.88,7,4,0,0.00
2013-5-20,72.0,64.5,58.0,63.0,59.9,55.0,95,86,72,29.96,29.88,6,2,0,0.00
2013-5-21,71.0,64.7,61.0,63.0,60.6,59.0,95,87,73,29.94,29.84,8,3,0,0.00
2013-5-22,70.0,63.7,61.0,59.0,57.9,56.0,89,82,69,29.86,29.78,9,4,0,0.00
2013-5-23,68.0,62.4,58.0,58.0,55.9,54.0,89,80,67,29.94,29.84,8,4,0,0.00
2013-5-24,67.0,62.5,58.0,57.0,55.4,53.0,87,78,68,30.02,29.92,7,3,0,0.00
2013-5-25,69.0,61.9,56.0,59.0,55.0,52.0,89,79,64,30.04,29.97,9,4,0,0.00
2013-5-26,68.0,62.0,58.0,58.0,55.9,54.0,90,81,69,30.07,30.00,6,2,0,0.00
2013-5-27,71.0,63.2,56.0,62.0,57.7,53.0,91,83,70,30.02,29.86,5,3,0,0.00
2013-5-28,72.0,65.1,60.0,62.0,59.2,56.0,91,82,67,29.90,29.75,6,2,0,0.00
2013-5-29,73.0,66.2,61.0,64.0,61.0,58.0,92,84,72,29.81,29.72,5,2,0,0.00
2013-5-30,72.0,65.0,61.0,63.0,60.5,59.0,93,86,72,29.89,29.77,10,5,0,0.00
2013-5-31,71.0,65.3,61.0,62.0,60.3,58.0,92,84,73,29.91,29.82,9,3,0,0.00
2013-6-1,71.0,65.2,62.0,64.0,61.6,60.0,94,88,77,29.86,29.77,8,2,0,0.00
2013-6-2,65.0,62.7,62.0,61.0,60.2,59.0,97,92,86,29.85,29.77,13,5,0,0.00
2013-6-3,65.0,63.2,62.0,60.0,58.8,58.0,88,86,81,29.90,29.81,11,6,0,0.00
2013-6-4,65.0,63.2,62.0,60.0,58.5,57.0,86,84,79,29.97,29.90,10,6,0,0.00
2013-6-5,64.0,63.2,61.0,59.0,58.4,56.0,87,85,81,30.00,29.91,13,7,0,0.00
2013-6-6,67.0,61.9,58.0,61.0,58.5,55.0,93,89,79,29.96,29.88,10,4,0,0.00
2013-6-7,69.0,62.5,59.0,61.0,58.9,57.0,94,88,74,29.92,29.79,7,2,0,0.00
2013-6-8,64.0,61.1,59.0,60.0,58.8,58.0,96,92,84,29.92,29.80,6,2,0,0.00
2013-6-9,67.0,61.6,59.0,62.0,58.7,56.0,95,90,81,29.94,29.88,5,2,0,0.00
2013-6-10,72.0,65.1,60.0,61.0,58.7,56.0,93,80,67,29.95,29.89,8,2,0,0.00
2013-6-11,70.0,64.4,59.0,64.0,61.1,58.0,96,89,78,29.95,29.87,11,2,0,0.00
2013-6-12,70.0,63.6,61.0,63.0,60.6,59.0,97,90,75,30.03,29.93,7,2,0,0.00
2013-6-13,70.0,65.1,62.0,62.0,60.2,59.0,92,85,71,30.02,29.89,7,2,0,0.00
2013-6-14,70.0,63.4,60.0,61.0,58.7,56.0,94,85,71,29.93,29.85,9,4,0,0.00
2013-6-15,71.0,63.7,60.0,59.0,57.8,57.0,90,82,65,29.98,29.91,8,3,0,0.00
2013-6-16,70.0,64.3,60.0,63.0,58.6,55.0,95,82,72,30.04,29.94,10,2,0,0.00
2013-6-17,72.0,64.1,60.0,63.0,60.6,59.0,96,88,73,29.99,29.88,6,1,0,0.00
2013-6-18,71.0,63.9,60.0,64.0,60.8,59.0,96,90,74,29.93,29.83,7,2,0,0.00
2013-6-19,69.0,64.0,61.0,62.0,59.8,58.0,91,86,74,29.88,29.78,10,3,0,0.00
2013-6-20,64.0,62.9,61.0,61.0,59.9,58.0,92,90,88,29.86,29.80,11,5,0,0.00
2013-6-22,71.0,66.7,62.0,62.0,60.6,59.0,91,81,71,29.92,29.83,9,4,0,0.00
2013-6-23,71.0,64.5,61.0,62.0,59.3,58.0,91,83,73,29.89,29.81,7,3,0,0.00
2013-6-24,71.0,64.3,61.0,63.0,60.5,57.0,97,88,75,29.95,29.84,6,2,0,0.06
2013-6-25,73.0,66.0,62.0,66.0,62.9,61.0,96,90,74,30.00,29.89,12,2,0,0.00
2013-6-26,73.0,67.0,62.0,66.0,64.0,61.0,98,90,78,29.98,29.91,3,1,0,0.00
2013-6-27,75.0,66.3,64.0,67.0,64.2,63.0,98,94,77,30.02,29.97,5,1,0,0.00
2013-6-28,76.0,68.0,62.0,68.0,64.8,62.0,100,90,75,30.00,29.87,4,1,0,0.00
2013-6-29,76.0,67.3,64.0,69.0,65.5,64.0,100,94,78,29.88,29.73,3,1,0,0.00
2013-6-30,77.0,68.6,66.0,70.0,66.6,65.0,99,94,80,29.81,29.71,12,3,0,0.01
2013-7-1,77.0,68.3,65.0,70.0,66.5,65.0,99,94,77,29.89,29.81,9,1,0,0.01
2013-7-2,68.0,66.1,65.0,66.0,64.6,64.0,99,95,91,30.00,29.88,8,3,0,0.00
2013-7-3,67.0,65.7,65.0,65.0,64.2,63.0,97,95,93,29.93,29.81,9,4,0,0.00
2013-7-4,73.0,66.7,63.0,66.0,63.5,62.0,98,90,78,29.84,29.77,6,2,0,0.00
2013-7-5,74.0,67.6,64.0,66.0,63.6,62.0,93,87,75,29.85,29.78,6,2,0,0.00
2013-7-6,73.0,67.0,65.0,66.0,63.7,62.0,93,89,80,29.83,29.77,7,1,0,0.00
2013-7-7,74.0,67.4,64.0,67.0,64.3,63.0,95,90,80,29.86,29.77,7,2,0,0.00
2013-7-8,77.0,67.7,63.0,68.0,64.3,62.0,98,90,73,29.92,29.85,9,2,0,0.00
2013-7-9,75.0,68.1,64.0,68.0,64.7,61.0,98,89,77,30.01,29.90,7,1,0,0.00
2013-7-10,71.0,65.5,66.0,68.0,60.5,-99.9,97,91,88,29.97,29.90,8,1,0,0.00
2013-7-11,72.0,68.4,66.0,68.0,66.6,65.0,96,93,87,29.96,29.89,8,1,0,0.00
2013-7-12,75.0,68.4,66.0,68.0,66.0,64.0,95,92,79,29.93,29.85,10,2,0,0.00
2013-7-13,75.0,68.6,65.0,66.0,64.3,63.0,95,87,74,29.95,29.86,5,2,0,0.00
2013-7-14,77.0,69.4,64.0,69.0,65.5,62.0,95,88,74,29.93,29.82,4,1,0,0.00
2013-7-15,76.0,69.1,65.0,68.0,65.1,62.0,95,87,71,29.87,29.80,6,2,0,0.00
2013-7-16,75.0,67.0,62.0,67.0,63.1,61.0,97,88,70,29.98,29.86,10,2,0,0.00
2013-7-17,77.0,65.6,61.0,66.0,62.8,60.0,98,91,68,30.01,29.97,3,1,0,0.01
2013-7-18,73.0,66.1,61.0,66.0,62.7,60.0,98,89,75,30.00,29.86,6,1,0,0.01
2013-7-19,73.0,65.9,62.0,66.0,63.0,61.0,97,91,77,29.91,29.84,6,2,0,0.00
2013-7-20,69.0,64.1,64.0,65.0,60.0,-99.9,95,90,86,29.88,29.81,6,1,0,0.00
2013-7-21,69.0,65.7,64.0,65.0,63.4,62.0,96,93,87,29.92,29.80,7,1,0,0.00
2013-7-22,75.0,68.0,64.0,67.0,64.6,63.0,96,89,75,29.98,29.91,6,1,0,0.00
2013-7-23,74.0,67.1,64.0,66.0,64.1,62.0,96,90,74,30.03,29.92,10,2,0,0.00
2013-7-24,71.0,65.3,62.0,65.0,62.8,61.0,97,91,81,29.97,29.90,8,2,0,0.00
2013-7-25,73.0,65.7,62.0,65.0,62.7,61.0,97,90,73,30.02,29.93,12,2,0,0.00
2013-7-26,75.0,65.4,63.0,68.0,63.6,62.0,98,94,79,30.08,29.98,5,1,0,0.04
2013-7-27,69.0,64.3,62.0,66.0,62.6,61.0,98,94,85,30.02,29.89,4,1,0,0.00
2013-7-28,71.0,63.9,61.0,64.0,61.5,60.0,99,92,78,29.93,29.89,7,2,0,0.00
2013-7-29,71.0,64.6,61.0,62.0,60.1,58.0,93,85,72,30.05,29.93,5,1,0,0.00
2013-7-30,72.0,64.3,60.0,62.0,59.9,58.0,94,86,71,30.12,30.04,14,2,0,0.00
2013-7-31,71.0,63.5,60.0,63.0,59.7,58.0,95,88,75,30.11,30.00,10,3,0,0.00
2013-8-1,73.0,65.9,62.0,63.0,60.6,58.0,93,84,70,30.02,29.90,9,2,0,0.00
2013-8-2,66.0,63.8,62.0,62.0,60.6,59.0,92,89,84,29.97,29.90,6,2,0,0.00
2013-8-3,66.0,64.2,63.0,62.0,60.7,59.0,91,89,87,30.00,29.93,6,4,0,0.00
2013-8-4,65.0,63.6,62.0,62.0,60.5,57.0,93,90,88,30.01,29.92,8,4,0,0.00
2013-8-5,71.0,62.4,58.0,64.0,59.7,56.0,98,91,76,30.01,29.92,6,2,0,0.00
2013-8-6,72.0,64.9,60.0,64.0,60.9,59.0,96,87,75,30.04,29.96,5,1,0,0.00
2013-8-7,70.0,63.6,61.0,63.0,60.4,57.0,96,89,75,30.09,29.97,12,2,0,0.00
2013-8-8,65.0,60.4,56.0,61.0,57.8,54.0,93,91,87,30.01,29.91,8,4,0,0.00
2013-8-9,71.0,64.1,60.0,61.0,59.5,58.0,94,86,69,29.98,29.91,7,3,0,0.00
2013-8-10,65.0,63.0,61.0,60.0,59.2,58.0,90,87,84,30.04,29.95,8,4,0,0.00
2013-8-11,66.0,63.2,62.0,62.0,60.2,59.0,92,89,86,30.00,29.89,6,3,0,0.00
2013-8-12,65.0,63.0,62.0,62.0,60.7,60.0,93,91,89,29.98,29.89,6,2,0,0.00
2013-8-13,64.0,61.7,62.0,62.0,58.0,-99.9,95,94,92,29.98,29.88,7,3,0,0.00
2013-8-14,64.0,63.0,62.0,63.0,61.8,61.0,95,95,94,29.93,29.85,7,4,0,0.00
2013-8-15,72.0,56.3,62.0,66.0,39.5,-99.9,98,81,81,29.95,29.88,5,2,0,0.00
2013-8-16,74.0,64.5,61.0,67.0,58.1,-99.9,99,90,78,29.96,29.89,9,2,0,0.00
2013-8-17,66.0,63.7,62.0,64.0,62.6,61.0,97,96,94,29.95,29.82,12,4,0,0.00
2013-8-18,66.0,64.0,63.0,63.0,62.4,62.0,96,94,91,29.91,29.82,11,4,0,0.00
2013-8-19,66.0,59.6,64.0,64.0,49.4,-99.9,94,90,90,29.96,29.86,11,5,0,0.00
2013-8-20,66.0,62.8,63.0,64.0,58.7,-99.9,95,93,92,29.93,29.83,15,5,0,0.00
2013-8-21,66.0,63.1,59.0,63.0,60.3,57.0,95,91,86,29.92,29.82,13,5,0,0.00
2013-8-22,69.0,64.4,60.0,62.0,60.2,57.0,92,86,75,29.92,29.79,11,3,0,0.00
2013-8-23,78.0,68.4,62.0,66.0,62.3,59.0,94,82,65,29.87,29.73,7,1,0,0.00
2013-8-24,71.0,63.5,59.0,65.0,61.5,58.0,99,93,80,29.89,29.76,6,1,0,0.01
2013-8-25,64.0,60.8,58.0,63.0,59.8,57.0,99,97,86,29.91,29.85,5,2,0,0.00
2013-8-26,67.0,64.3,63.0,63.0,59.9,58.0,93,86,80,29.92,29.82,6,2,0,0.00
2013-8-27,68.0,65.4,63.0,66.0,63.2,61.0,95,93,90,29.84,29.80,4,1,0,0.00
2013-8-28,68.0,66.7,66.0,64.0,62.5,62.0,92,87,84,29.88,29.81,3,0,0,0.00
2013-8-29,70.0,65.5,63.0,65.0,62.3,60.0,95,90,79,29.91,29.85,3,1,0,0.00
2013-8-30,79.0,70.8,66.0,70.0,65.7,62.0,91,85,71,29.95,29.88,6,1,0,0.00
2013-8-31,73.0,72.3,70.0,70.0,68.0,64.0,90,86,76,29.95,29.86,5,1,0,0.00
2013-9-1,71.0,69.0,66.0,69.0,66.9,65.0,98,93,89,29.92,29.85,9,3,0,0.00
2013-9-2,69.0,65.4,63.0,68.0,64.9,63.0,100,98,95,29.92,29.81,9,3,0,0.00
2013-9-3,69.0,66.7,65.0,66.0,65.1,64.0,98,95,89,29.89,29.80,3,1,0,0.00
2013-9-4,71.0,68.7,68.0,67.0,65.4,64.0,95,89,81,29.89,29.81,4,1,0,0.00
2013-9-5,70.0,68.4,67.0,66.0,64.8,63.0,93,88,83,29.88,29.79,4,1,0,0.00
2013-9-6,72.0,69.2,67.0,67.0,63.2,60.0,89,81,78,29.86,29.76,4,2,0,0.00
2013-9-7,69.0,67.2,66.0,66.0,63.4,60.0,94,87,77,29.85,29.80,6,1,0,0.00
2013-9-8,68.0,65.1,63.0,64.0,62.3,60.0,95,90,83,29.85,29.73,14,4,0,0.00
2013-9-9,65.0,63.5,62.0,63.0,60.9,59.0,96,91,87,29.82,29.73,10,3,0,0.00
2013-9-10,66.0,64.1,62.0,62.0,60.6,58.0,93,88,85,29.94,29.80,8,3,0,0.00
2013-9-11,66.0,64.1,61.0,62.0,60.5,58.0,90,88,85,30.00,29.90,9,4,0,0.00
2013-9-12,67.0,62.2,58.0,64.0,59.8,56.0,94,91,86,29.94,29.80,11,4,0,0.00
2013-9-13,66.0,61.9,57.0,64.0,59.3,55.0,97,92,86,29.84,29.64,9,3,0,0.00
2013-9-14,65.0,61.6,58.0,64.0,60.4,57.0,99,96,90,29.73,29.61,7,2,0,0.00
2013-9-15,68.0,63.8,61.0,66.0,62.7,60.0,100,96,90,29.77,29.68,13,2,0,0.00
2013-9-16,68.0,63.8,61.0,66.0,61.5,59.0,95,92,84,29.81,29.71,15,4,0,0.00
2013-9-17,65.0,63.9,61.0,63.0,61.7,60.0,95,92,88,29.83,29.71,11,4,0,0.00
2013-9-18,65.0,64.2,64.0,62.0,60.1,59.0,92,87,84,29.78,29.75,8,4,0,0.00
2013-9-19,76.0,67.6,63.0,65.0,62.7,61.0,95,85,70,29.82,29.73,5,1,0,0.00
2013-9-20,68.0,66.0,65.0,65.0,62.9,61.0,93,90,87,29.88,29.81,3,1,0,0.00
2013-9-21,71.0,66.5,62.0,63.0,61.2,59.0,94,83,73,29.90,29.79,10,4,0,0.00
2013-9-22,73.0,65.8,61.0,64.0,59.0,50.0,94,80,60,29.85,29.76,10,1,0,0.00
2013-9-23,79.0,70.0,62.0,65.0,57.0,49.0,77,64,44,29.89,29.77,5,1,0,0.00
2013-9-24,80.0,72.8,66.0,64.0,59.7,49.0,87,65,46,29.92,29.80,5,1,0,0.00
2013-9-25,73.0,67.2,64.0,65.0,62.5,59.0,94,85,75,29.85,29.69,13,6,0,0.00
2013-9-26,73.0,65.4,61.0,61.0,57.4,54.0,84,76,62,29.88,29.72,13,4,0,0.00
2013-9-27,76.0,67.6,60.0,63.0,52.2,37.0,84,62,27,29.98,29.88,8,3,0,0.00
2013-9-28,82.0,72.3,65.0,57.0,45.5,37.0,58,39,31,30.04,29.91,4,1,0,0.00
2013-9-29,78.0,68.6,64.0,65.0,55.4,40.0,85,64,33,30.06,29.93,3,1,0,0.00
2013-9-30,75.0,66.3,60.0,65.0,62.0,59.0,96,87,66,30.00,29.82,3,1,0,0.01
2013-10-1,68.0,64.0,63.0,63.0,60.7,59.0,89,88,83,29.93,29.85,5,4,0,0.00
2013-10-2,72.0,66.1,63.0,62.0,60.3,58.0,89,82,70,29.97,29.85,5,2,0,0.00
2013-10-3,65.0,64.3,63.0,62.0,60.1,58.0,89,87,82,29.93,29.80,12,5,0,0.00
2013-10-4,67.0,64.4,59.0,64.0,60.0,56.0,89,86,81,30.02,29.88,8,5,0,0.00
2013-10-5,77.0,71.6,64.0,54.0,36.3,26.0,50,29,15,30.08,29.97,10,5,0,0.00
2013-10-6,82.0,70.2,56.0,49.0,32.0,23.0,49,25,15,30.07,29.91,14,6,0,0.00
2013-10-7,68.0,63.6,57.0,65.0,52.6,33.0,89,70,31,29.97,29.87,9,4,0,0.00
2013-10-8,69.0,63.6,57.0,60.0,57.1,53.0,94,80,68,29.93,29.81,7,4,0,0.00
2013-10-9,64.0,59.5,53.0,55.0,53.0,50.0,100,80,71,29.83,29.73,20,7,0,0.31
2013-10-10,68.0,59.2,51.0,54.0,52.2,49.0,95,78,61,30.01,29.82,7,2,0,0.01
2013-10-11,68.0,61.7,56.0,59.0,54.7,50.0,87,78,69,30.05,29.91,13,3,0,0.00
2013-10-12,70.0,62.7,58.0,62.0,58.9,55.0,96,88,75,29.98,29.86,7,1,0,0.00
2013-10-13,68.0,62.3,57.0,59.0,57.1,54.0,92,84,70,30.03,29.93,5,1,0,0.00
2013-10-14,74.0,63.9,55.0,64.0,58.5,53.0,98,84,68,30.03,29.86,5,1,0,0.00
2013-10-15,78.0,68.2,59.0,58.0,50.5,39.0,86,56,30,29.96,29.84,2,0,0,0.00
2013-10-16,82.0,73.6,64.0,54.0,41.0,28.0,70,33,20,30.05,29.93,3,1,0,0.00
2013-10-17,74.0,69.2,63.0,61.0,48.4,31.0,68,49,24,30.04,29.89,3,1,0,0.00
2013-10-18,72.0,64.1,52.0,62.0,55.9,46.0,96,76,54,30.02,29.89,7,2,0,0.00
2013-10-19,66.0,62.3,60.0,62.0,56.7,52.0,92,82,70,30.02,29.92,7,1,0,0.00
2013-10-20,66.0,60.9,55.0,60.0,57.0,53.0,94,88,81,30.00,29.87,6,2,0,0.00
2013-10-21,63.0,60.0,56.0,60.0,56.9,53.0,93,90,88,29.99,29.88,9,4,0,0.00
2013-10-22,66.0,59.7,53.0,60.0,57.2,51.0,95,91,81,30.02,29.89,8,4,0,0.00
2013-10-23,68.0,61.8,60.0,58.0,57.1,56.0,92,85,71,29.98,29.88,8,2,0,0.00
2013-10-24,67.0,62.3,60.0,60.0,57.1,56.0,89,83,75,30.05,29.95,8,1,0,0.00
2013-10-25,68.0,62.0,59.0,60.0,57.6,56.0,95,86,76,30.13,29.98,9,2,0,0.00
2013-10-26,66.0,61.3,57.0,62.0,59.5,57.0,100,94,85,30.09,29.95,4,1,0,0.00
2013-10-27,68.0,61.2,57.0,62.0,59.1,57.0,100,93,80,30.00,29.80,5,1,0,0.00
2013-10-28,65.0,59.6,58.0,58.0,51.4,-99.9,92,80,70,29.94,29.84,15,4,0,0.00
2013-10-29,66.0,59.6,54.0,56.0,52.6,50.0,89,78,64,30.02,29.93,8,3,0,0.00
2013-10-30,67.0,59.6,54.0,57.0,53.4,47.0,89,80,70,30.07,29.96,7,2,0,0.00
2013-10-31,70.0,62.0,50.0,56.0,50.5,44.0,88,67,51,30.10,29.95,3,1,0,0.00
2013-11-1,66.0,61.8,59.0,55.0,46.8,40.0,77,58,45,30.11,29.91,5,2,0,0.00
2013-11-2,66.0,60.3,52.0,63.0,50.7,35.0,93,72,45,30.00,29.85,10,5,0,0.00
2013-11-3,63.0,60.9,57.0,58.0,55.8,53.0,92,84,76,29.93,29.80,10,4,0,0.00
2013-11-4,62.0,59.7,53.0,55.0,52.1,49.0,87,76,71,29.95,29.80,14,4,0,0.00
2013-11-5,72.0,58.9,49.0,58.0,44.2,23.0,94,66,21,30.13,29.95,6,4,0,0.00
2013-11-6,76.0,68.2,66.0,55.0,40.2,23.0,62,40,14,30.21,30.10,3,1,0,0.00
2013-11-7,80.0,72.2,63.0,47.0,35.4,28.0,56,28,19,30.09,29.95,7,1,0,0.00
2013-11-8,69.0,62.1,57.0,60.0,52.4,46.0,98,73,52,30.05,29.92,4,1,0,0.00
2013-11-9,71.0,58.6,51.0,57.0,54.4,50.0,100,88,52,30.08,29.96,3,1,0,0.00
2013-11-10,72.0,62.5,57.0,59.0,51.0,43.0,88,67,41,30.14,30.00,7,2,0,0.00
2013-11-11,70.0,62.8,57.0,61.0,55.5,45.0,93,78,65,30.14,29.99,5,1,0,0.00
2013-11-12,73.0,64.5,58.0,61.0,54.4,41.0,96,72,39,30.18,30.04,6,1,0,0.00
2013-11-13,79.0,73.1,62.0,61.0,52.1,39.0,70,49,24,30.06,29.84,4,1,0,0.00
2013-11-14,81.0,70.5,59.0,57.0,50.2,41.0,93,51,29,29.93,29.77,7,1,0,0.00
2013-11-15,66.0,61.7,59.0,59.0,57.5,56.0,98,87,77,29.79,29.66,11,5,0,0.00
2013-11-16,66.0,60.2,57.0,57.0,54.2,52.0,93,81,63,29.89,29.77,7,4,0,0.00
2013-11-18,66.0,62.1,58.0,59.0,56.6,55.0,94,83,71,30.16,30.03,7,3,0,0.00
2013-11-19,64.0,60.0,58.0,57.0,55.1,54.0,91,84,73,30.09,29.95,8,2,0,0.00
2013-11-20,67.0,60.6,57.0,59.0,56.5,54.0,99,86,75,29.99,29.87,7,2,0,0.09
2013-11-21,61.0,58.7,55.0,60.0,57.7,54.0,100,96,89,29.90,29.84,18,5,0,0.17
2013-11-22,61.0,56.1,54.0,54.0,49.0,44.0,97,78,65,29.97,29.84,11,4,0,0.00
2013-11-23,61.0,56.2,50.0,51.0,46.9,43.0,82,72,56,30.09,29.96,11,6,0,0.00
2013-11-24,61.0,55.2,47.0,54.0,49.0,43.0,86,80,74,30.20,30.09,10,6,0,0.00
2013-11-25,63.0,55.8,47.0,56.0,49.0,43.0,86,78,64,30.25,30.13,8,5,0,0.00
2013-11-26,70.0,64.1,56.0,57.0,48.5,36.0,77,58,30,30.20,30.02,3,2,0,0.00
2013-11-27,71.0,63.6,60.0,57.0,47.4,41.0,90,57,42,30.05,29.84,4,1,0,0.00
2013-11-28,67.0,60.8,55.0,57.0,51.7,40.0,85,73,51,30.07,29.90,9,2,0,0.00
2013-11-29,63.0,59.3,57.0,58.0,55.0,51.0,95,86,73,30.18,30.07,5,1,0,0.18
2013-11-30,71.0,62.2,58.0,60.0,53.8,49.0,90,74,52,30.18,30.04,6,1,0,0.00
2013-12-1,75.0,65.0,59.0,59.0,51.5,38.0,80,63,34,30.22,30.05,3,1,0,0.00
2013-12-2,70.0,65.9,59.0,55.0,49.4,41.0,76,56,41,30.08,29.92,2,1,0,0.00
2013-12-3,62.0,59.0,57.0,56.0,54.1,48.0,91,84,77,29.93,29.75,18,6,0,0.00
2013-12-4,61.0,55.6,49.0,49.0,42.9,39.0,79,63,47,29.99,29.81,17,5,0,0.00
2013-12-5,62.0,54.5,47.0,44.0,41.6,39.0,74,62,50,30.12,29.97,7,3,0,0.00
2013-12-6,60.0,53.5,48.0,45.0,41.1,38.0,72,63,54,30.19,30.08,9,5,0,0.00
2013-12-7,57.0,52.2,49.0,51.0,43.6,36.0,94,73,55,30.15,30.03,25,6,0,0.15
2013-12-8,57.0,49.6,40.0,42.0,37.7,29.0,89,64,48,30.22,30.10,7,3,0,0.00
2013-12-9,60.0,49.5,38.0,36.0,23.6,8.0,89,40,17,30.29,30.19,7,3,0,0.00
2013-12-10,66.0,57.0,48.0,44.0,34.3,18.0,57,43,28,30.27,30.06,3,2,0,0.00
2013-12-11,67.0,60.5,55.0,52.0,43.5,33.0,86,55,36,30.18,30.08,3,0,0,0.02
2013-12-12,64.0,56.9,52.0,56.0,50.0,37.0,94,79,48,30.22,30.12,4,2,0,0.00
2013-12-13,63.0,54.8,50.0,54.0,51.4,48.0,99,89,73,30.25,30.11,4,1,0,0.01
2013-12-14,72.0,59.3,51.0,54.0,43.2,25.0,94,63,22,30.30,30.18,3,1,0,0.00
2013-12-15,77.0,67.5,62.0,51.0,46.2,34.0,67,48,26,30.20,30.03,3,1,0,0.00
2013-12-16,77.0,71.2,61.0,54.0,42.9,35.0,57,37,25,30.13,30.01,3,1,0,0.00
2013-12-17,75.0,68.1,62.0,57.0,46.7,35.0,82,49,28,30.13,29.99,3,1,0,0.00
2013-12-18,68.0,61.3,56.0,59.0,53.7,46.0,94,77,52,30.01,29.86,7,2,0,0.00
2013-12-19,56.0,52.7,49.0,51.0,48.4,45.0,94,85,77,29.89,29.74,10,3,0,0.09
2013-12-20,61.0,53.7,47.0,53.0,48.4,44.0,91,82,74,29.96,29.79,8,3,0,0.00
2013-12-21,61.0,55.3,52.0,53.0,49.7,48.0,88,81,72,30.09,29.93,10,5,0,0.00
2013-12-22,65.0,57.5,51.0,55.0,51.4,48.0,88,80,69,30.26,30.10,4,2,0,0.00